createdAt,value
2024-02-23T00:02:18.911Z,14.07
2024-02-23T00:05:04.366Z,9.45
2024-02-23T00:07:49.926Z,7.47
2024-02-23T00:10:34.976Z,9.10
2024-02-23T00:13:20.047Z,12.43
2024-02-23T00:16:05.104Z,15.98
2024-02-23T00:18:50.367Z,18.23
2024-02-23T00:21:35.296Z,15.65
2024-02-23T00:24:21.797Z,14.68
2024-02-23T00:27:07.409Z,11.63
2024-02-23T00:29:52.625Z,19.58
2024-02-23T00:32:37.627Z,12.30
2024-02-23T00:35:22.967Z,14.05
2024-02-23T00:38:08.864Z,15.30
2024-02-23T00:40:53.876Z,13.45
2024-02-23T00:43:39.554Z,23.20
2024-02-23T00:46:24.726Z,16.17
2024-02-23T00:49:09.798Z,10.20
2024-02-23T00:51:55.002Z,16.25
2024-02-23T00:54:39.969Z,17.35
2024-02-23T00:57:30.623Z,13.57
2024-02-23T01:00:15.726Z,15.32
2024-02-23T01:03:01.492Z,17.67
2024-02-23T01:05:46.661Z,18.63
2024-02-23T01:08:32.546Z,16.00
2024-02-23T01:11:17.520Z,16.55
2024-02-23T01:14:02.532Z,12.05
2024-02-23T01:16:47.337Z,12.93
2024-02-23T01:19:32.131Z,18.40
2024-02-23T01:22:16.957Z,13.85
2024-02-23T01:25:01.958Z,24.83
2024-02-23T01:27:46.941Z,19.42
2024-02-23T01:30:31.858Z,12.75
2024-02-23T01:33:17.068Z,18.35
2024-02-23T01:36:02.034Z,13.20
2024-02-23T01:38:47.865Z,23.35
2024-02-23T01:41:33.566Z,15.30
2024-02-23T01:44:18.496Z,9.65
2024-02-23T01:47:04.002Z,7.63
2024-02-23T01:49:49.180Z,15.02
2024-02-23T01:52:34.036Z,14.50
2024-02-23T01:55:20.263Z,9.07
2024-02-23T01:58:08.209Z,6.90
2024-02-23T02:00:53.878Z,6.57
2024-02-23T02:03:39.545Z,14.05
2024-02-23T02:06:25.276Z,9.18
2024-02-23T02:09:10.057Z,11.15
2024-02-23T02:11:55.070Z,9.40
2024-02-23T02:14:39.917Z,15.38
2024-02-23T02:17:24.885Z,13.93
2024-02-23T02:20:14.597Z,10.50
2024-02-23T02:23:00.039Z,10.35
2024-02-23T02:25:45.116Z,15.52
2024-02-23T02:28:30.096Z,9.27
2024-02-23T02:31:14.960Z,14.80
2024-02-23T02:33:59.860Z,16.85
2024-02-23T02:36:44.576Z,12.07
2024-02-23T02:39:29.682Z,12.25
2024-02-23T02:42:14.613Z,9.10
2024-02-23T02:44:59.628Z,12.68
2024-02-23T02:47:45.049Z,4.90
2024-02-23T02:50:30.350Z,9.07
2024-02-23T02:53:15.543Z,9.55
2024-02-23T02:56:00.777Z,7.28
2024-02-23T02:58:45.652Z,6.93
2024-02-23T03:01:30.562Z,10.10
2024-02-23T03:04:15.590Z,8.55
2024-02-23T03:07:00.575Z,9.25
2024-02-23T03:09:46.011Z,8.63
2024-02-23T03:12:31.080Z,7.47
2024-02-23T03:15:16.271Z,6.68
2024-02-23T03:18:02.695Z,5.95
2024-02-23T03:20:47.782Z,8.52
2024-02-23T03:23:32.817Z,7.70
2024-02-23T03:26:18.480Z,10.18
2024-02-23T03:29:03.701Z,9.35
2024-02-23T03:31:48.625Z,9.38
2024-02-23T03:34:33.489Z,4.88
2024-02-23T03:37:18.326Z,5.53
2024-02-23T03:40:04.205Z,7.15
2024-02-23T03:42:49.224Z,3.55
2024-02-23T03:45:34.110Z,5.93
2024-02-23T03:48:18.990Z,4.50
2024-02-23T03:51:07.155Z,3.08
2024-02-23T03:53:52.365Z,2.45
2024-02-23T03:56:41.557Z,3.10
2024-02-23T03:59:26.850Z,3.83
2024-02-23T04:02:11.680Z,5.65
2024-02-23T04:04:56.696Z,8.52
2024-02-23T04:07:41.594Z,2.92
2024-02-23T04:10:26.384Z,5.95
2024-02-23T04:13:14.667Z,3.90
2024-02-23T04:16:02.096Z,7.55
2024-02-23T04:18:47.128Z,9.43
2024-02-23T04:21:32.106Z,3.45
2024-02-23T04:24:17.068Z,11.77
2024-02-23T04:27:02.063Z,3.72
2024-02-23T04:29:46.904Z,11.10
2024-02-23T04:32:32.063Z,5.18
2024-02-23T04:35:17.490Z,7.15
2024-02-23T04:38:02.373Z,6.10
2024-02-23T04:40:47.244Z,7.93
2024-02-23T04:43:32.956Z,4.15
2024-02-23T04:46:18.171Z,7.82
2024-02-23T04:49:03.252Z,5.50
2024-02-23T04:51:48.162Z,4.38
2024-02-23T04:54:33.094Z,7.45
2024-02-23T04:57:18.011Z,9.30
2024-02-23T05:00:03.151Z,6.65
2024-02-23T05:02:48.030Z,9.10
2024-02-23T05:05:33.219Z,6.63
2024-02-23T05:08:18.843Z,8.60
2024-02-23T05:11:04.298Z,7.80
2024-02-23T05:13:49.767Z,8.80
2024-02-23T05:16:34.988Z,8.82
2024-02-23T05:19:19.860Z,7.25
2024-02-23T05:22:04.983Z,6.30
2024-02-23T05:24:50.105Z,4.60
2024-02-23T05:27:35.034Z,14.80
2024-02-23T05:30:20.047Z,10.38
2024-02-23T05:33:05.946Z,4.88
2024-02-23T05:35:50.998Z,6.28
2024-02-23T05:38:36.255Z,9.95
2024-02-23T05:41:21.158Z,4.68
2024-02-23T05:44:07.020Z,7.07
2024-02-23T05:46:52.047Z,5.22
2024-02-23T05:49:37.007Z,7.32
2024-02-23T05:52:21.968Z,7.10
2024-02-23T05:55:06.896Z,7.97
2024-02-23T05:57:52.240Z,4.78
2024-02-23T06:00:37.256Z,5.93
2024-02-23T06:03:22.025Z,9.65
2024-02-23T06:06:10.411Z,9.80
2024-02-23T06:08:55.545Z,4.22
2024-02-23T06:11:40.696Z,7.43
2024-02-23T06:14:25.964Z,3.45
2024-02-23T06:17:10.885Z,5.38
2024-02-23T06:19:58.547Z,6.10
2024-02-23T06:22:43.691Z,7.05
2024-02-23T06:25:28.527Z,6.32
2024-02-23T06:28:13.467Z,4.93
2024-02-23T06:30:58.448Z,6.05
2024-02-23T06:33:43.372Z,5.57
2024-02-23T06:36:28.276Z,8.98
2024-02-23T06:39:13.178Z,5.18
2024-02-23T06:41:58.929Z,5.85
2024-02-23T06:44:44.351Z,9.73
2024-02-23T06:47:29.391Z,10.25
2024-02-23T06:50:14.758Z,7.40
2024-02-23T06:52:59.595Z,6.95
2024-02-23T06:55:44.420Z,5.43
2024-02-23T06:58:29.366Z,7.95
2024-02-23T07:01:14.587Z,5.47
2024-02-23T07:04:00.025Z,5.95
2024-02-23T07:06:45.369Z,9.05
2024-02-23T07:09:30.387Z,8.27
2024-02-23T07:12:15.482Z,13.23
2024-02-23T07:15:00.383Z,5.60
2024-02-23T07:17:46.123Z,7.10
2024-02-23T07:20:31.175Z,11.07
2024-02-23T07:23:17.495Z,5.90
2024-02-23T07:26:02.625Z,10.55
2024-02-23T07:28:47.484Z,10.60
2024-02-23T07:31:33.157Z,9.13
2024-02-23T07:34:18.686Z,11.68
2024-02-23T07:37:04.509Z,8.77
2024-02-23T07:39:49.702Z,9.43
2024-02-23T07:42:36.553Z,6.53
2024-02-23T07:45:21.537Z,9.23
2024-02-23T07:48:07.001Z,12.65
2024-02-23T07:50:52.357Z,9.13
2024-02-23T07:53:38.179Z,9.90
2024-02-23T07:56:23.333Z,15.55
2024-02-23T07:59:08.227Z,10.77
2024-02-23T08:01:53.136Z,11.80
2024-02-23T08:04:38.937Z,9.52
2024-02-23T08:07:24.271Z,12.32
2024-02-23T08:10:10.556Z,9.65
2024-02-23T08:12:55.555Z,4.60
2024-02-23T08:15:40.496Z,9.00
2024-02-23T08:18:25.750Z,6.65
2024-02-23T08:21:11.668Z,8.18
2024-02-23T08:23:56.726Z,12.98
2024-02-23T08:26:42.129Z,9.20
2024-02-23T08:29:27.316Z,13.27
2024-02-23T08:32:12.517Z,8.88
2024-02-23T08:35:00.636Z,7.85
2024-02-23T08:37:46.291Z,6.68
2024-02-23T08:40:31.674Z,5.60
2024-02-23T08:43:16.624Z,10.18
2024-02-23T08:46:06.793Z,6.20
2024-02-23T08:48:54.151Z,7.25
2024-02-23T08:51:39.055Z,4.47
2024-02-23T08:54:24.380Z,4.30
2024-02-23T08:57:09.238Z,6.07
2024-02-23T08:59:54.426Z,8.38
2024-02-23T09:02:43.501Z,5.93
2024-02-23T09:05:28.969Z,8.70
2024-02-23T09:08:14.826Z,8.00
2024-02-23T09:10:59.841Z,4.57
2024-02-23T09:13:44.948Z,8.10
2024-02-23T09:16:30.115Z,7.70
2024-02-23T09:19:15.119Z,5.13
2024-02-23T09:22:01.210Z,9.77
2024-02-23T09:24:46.157Z,13.07
2024-02-23T09:27:31.217Z,5.47
2024-02-23T09:30:16.261Z,5.55
2024-02-23T09:33:01.657Z,4.88
2024-02-23T09:35:46.984Z,11.70
2024-02-23T09:38:33.522Z,6.38
2024-02-23T09:41:23.440Z,7.03
2024-02-23T09:44:10.497Z,11.13
2024-02-23T09:46:56.357Z,7.05
2024-02-23T09:49:41.913Z,9.88
2024-02-23T09:52:29.926Z,9.77
2024-02-23T09:55:15.203Z,9.82
2024-02-23T09:58:01.063Z,8.02
2024-02-23T10:00:46.389Z,7.20
2024-02-23T10:03:31.873Z,4.05
2024-02-23T10:06:16.681Z,6.05
2024-02-23T10:09:01.771Z,10.95
2024-02-23T10:11:52.539Z,11.68
2024-02-23T10:14:37.889Z,12.18
2024-02-23T10:17:23.352Z,4.15
2024-02-23T10:20:08.749Z,11.20
2024-02-23T10:22:55.270Z,15.23
2024-02-23T10:25:40.927Z,9.30
2024-02-23T10:28:25.979Z,9.57
2024-02-23T10:31:13.668Z,11.38
2024-02-23T10:33:59.762Z,4.20
2024-02-23T10:36:46.454Z,10.48
2024-02-23T10:39:31.782Z,10.77
2024-02-23T10:42:21.293Z,12.35
2024-02-23T10:45:06.750Z,10.57
2024-02-23T10:47:52.483Z,9.13
2024-02-23T10:50:38.315Z,8.70
2024-02-23T10:53:24.510Z,8.98
2024-02-23T10:56:11.506Z,10.05
2024-02-23T10:58:56.737Z,14.75
2024-02-23T11:01:41.903Z,13.90
2024-02-23T11:04:28.721Z,12.00
2024-02-23T11:07:17.086Z,7.68
2024-02-23T11:10:02.315Z,11.45
2024-02-23T11:12:58.661Z,13.60
2024-02-23T11:15:43.765Z,12.38
2024-02-23T11:18:29.498Z,9.13
2024-02-23T11:21:14.551Z,8.27
2024-02-23T11:24:03.414Z,10.35
2024-02-23T11:26:49.129Z,7.40
2024-02-23T11:29:34.195Z,10.48
2024-02-23T11:32:19.556Z,20.63
2024-02-23T11:35:04.723Z,18.15
2024-02-23T11:37:57.829Z,18.33
2024-02-23T11:40:42.661Z,12.77
2024-02-23T11:43:27.738Z,10.48
2024-02-23T11:46:13.380Z,5.97
2024-02-23T11:48:58.584Z,14.00
2024-02-23T11:51:45.621Z,9.63
2024-02-23T11:54:31.277Z,16.25
2024-02-23T11:57:16.469Z,14.45
2024-02-23T12:00:05.006Z,10.32
2024-02-23T12:02:51.251Z,9.88
2024-02-23T12:05:36.455Z,7.40
2024-02-23T12:08:21.565Z,9.30
2024-02-23T12:11:08.374Z,12.32
2024-02-23T12:13:53.758Z,17.15
2024-02-23T12:16:40.733Z,12.85
2024-02-23T12:19:25.717Z,12.18
2024-02-23T12:22:13.955Z,16.02
2024-02-23T12:24:59.220Z,11.82
2024-02-23T12:27:44.505Z,15.27
2024-02-23T12:30:32.252Z,14.85
2024-02-23T12:33:17.915Z,11.85
2024-02-23T12:36:03.632Z,19.35
2024-02-23T12:38:48.688Z,10.45
2024-02-23T12:41:33.620Z,17.33
2024-02-23T12:44:18.692Z,11.82
2024-02-23T12:47:04.262Z,19.55
2024-02-23T12:49:49.613Z,12.98
2024-02-23T12:52:34.432Z,10.10
2024-02-23T12:55:19.418Z,15.55
2024-02-23T12:58:04.317Z,14.18
2024-02-23T13:00:49.546Z,11.05
2024-02-23T13:03:35.060Z,5.05
2024-02-23T13:06:20.160Z,2.90
2024-02-23T13:09:05.646Z,3.95
2024-02-23T13:11:50.717Z,1.90
2024-02-23T13:14:36.180Z,9.98
2024-02-23T13:17:21.078Z,7.50
2024-02-23T13:20:11.493Z,3.38
2024-02-23T13:22:57.383Z,4.82
2024-02-23T13:25:43.634Z,4.20
2024-02-23T13:28:29.195Z,4.90
2024-02-23T13:31:16.068Z,5.72
2024-02-23T13:34:01.495Z,7.60
2024-02-23T13:36:47.031Z,3.85
2024-02-23T13:39:33.437Z,4.75
2024-02-23T13:42:18.640Z,4.22
2024-02-23T13:45:03.687Z,8.13
2024-02-23T13:48:01.968Z,8.18
2024-02-23T13:50:47.802Z,6.95
2024-02-23T13:53:33.794Z,8.45
2024-02-23T13:56:19.158Z,5.75
2024-02-23T13:59:05.138Z,6.75
2024-02-23T14:01:49.932Z,7.65
2024-02-23T14:04:34.829Z,8.10
2024-02-23T14:07:19.556Z,9.68
2024-02-23T14:10:04.682Z,10.35
2024-02-23T14:12:51.707Z,11.13
2024-02-23T14:15:36.597Z,7.35
2024-02-23T14:18:21.498Z,8.05
2024-02-23T14:21:06.467Z,7.65
2024-02-23T14:23:51.366Z,7.00
2024-02-23T14:26:36.956Z,16.08
2024-02-23T14:29:22.300Z,8.77
2024-02-23T14:32:07.468Z,7.35
2024-02-23T14:34:52.415Z,6.78
2024-02-23T14:37:37.426Z,7.68
2024-02-23T14:40:22.313Z,5.85
2024-02-23T14:43:07.266Z,9.63
2024-02-23T14:45:55.259Z,7.07
2024-02-23T14:48:40.250Z,4.25
2024-02-23T14:51:25.200Z,5.05
2024-02-23T14:54:10.023Z,9.20
2024-02-23T14:56:55.011Z,7.10
2024-02-23T14:59:47.476Z,5.40
2024-02-23T15:02:32.873Z,3.65
2024-02-23T15:05:18.849Z,7.13
2024-02-23T15:08:04.014Z,7.75
2024-02-23T15:10:48.979Z,3.85
2024-02-23T15:13:33.968Z,9.48
2024-02-23T15:16:18.927Z,5.70
2024-02-23T15:19:05.813Z,5.68
2024-02-23T15:21:54.108Z,4.70
2024-02-23T15:24:38.941Z,7.10
2024-02-23T15:27:23.691Z,2.97
2024-02-23T15:30:11.698Z,11.70
2024-02-23T15:32:56.722Z,3.55
2024-02-23T15:35:41.544Z,4.10
2024-02-23T15:38:27.164Z,4.07
2024-02-23T15:41:12.820Z,3.55
2024-02-23T15:43:57.818Z,7.32
2024-02-23T15:46:42.837Z,4.85
2024-02-23T15:49:44.991Z,3.45
2024-02-23T15:52:32.867Z,6.05
2024-02-23T15:55:19.207Z,4.03
2024-02-23T15:58:04.688Z,5.57
2024-02-23T16:00:50.096Z,5.35
2024-02-23T16:03:35.765Z,4.13
2024-02-23T16:06:20.695Z,4.85
2024-02-23T16:09:09.887Z,4.07
2024-02-23T16:11:55.162Z,5.95
2024-02-23T16:14:40.588Z,4.47
2024-02-23T16:17:25.611Z,6.15
2024-02-23T16:20:10.740Z,6.68
2024-02-23T16:22:55.641Z,5.55
2024-02-23T16:25:40.723Z,4.43
2024-02-23T16:28:26.069Z,8.77
2024-02-23T16:31:11.446Z,7.20
2024-02-23T16:33:56.306Z,6.45
2024-02-23T16:36:42.756Z,6.75
2024-02-23T16:39:28.452Z,6.78
2024-02-23T16:42:13.362Z,10.05
2024-02-23T16:44:58.393Z,9.32
2024-02-23T16:47:43.617Z,11.45
2024-02-23T16:50:28.970Z,5.30
2024-02-23T16:53:15.056Z,7.05
2024-02-23T16:56:02.011Z,7.00
2024-02-23T16:58:47.062Z,9.25
2024-02-23T17:01:32.343Z,4.90
2024-02-23T17:04:17.426Z,6.20
2024-02-23T17:07:02.921Z,8.93
2024-02-23T17:09:49.140Z,9.68
2024-02-23T17:12:34.091Z,7.65
2024-02-23T17:15:19.000Z,7.10
2024-02-23T17:18:04.442Z,4.93
2024-02-23T17:20:50.332Z,4.10
2024-02-23T17:23:35.444Z,4.03
2024-02-23T17:26:20.294Z,4.97
2024-02-23T17:29:05.136Z,8.18
2024-02-23T17:31:49.997Z,3.83
2024-02-23T17:34:34.864Z,4.50
2024-02-23T17:37:22.591Z,2.90
2024-02-23T17:40:08.708Z,8.15
2024-02-23T17:42:53.894Z,3.40
2024-02-23T17:45:38.909Z,7.97
2024-02-23T17:48:23.949Z,3.70
2024-02-23T17:51:09.512Z,3.70
2024-02-23T17:53:58.981Z,4.00
2024-02-23T17:56:43.928Z,4.93
2024-02-23T17:59:29.016Z,6.05
2024-02-23T18:02:15.174Z,6.70
2024-02-23T18:05:00.283Z,7.20
2024-02-23T18:07:45.066Z,8.05
2024-02-23T18:10:29.987Z,5.97
2024-02-23T18:13:15.551Z,5.88
2024-02-23T18:16:08.860Z,8.52
2024-02-23T18:18:54.318Z,5.75
2024-02-23T18:21:39.722Z,6.60
2024-02-23T18:24:24.602Z,5.38
2024-02-23T18:27:10.043Z,3.25
2024-02-23T18:29:54.942Z,3.85
2024-02-23T18:32:41.936Z,4.53
2024-02-23T18:35:29.240Z,3.53
2024-02-23T18:38:14.496Z,3.30
2024-02-23T18:41:00.694Z,5.10
2024-02-23T18:43:48.278Z,10.15
2024-02-23T18:46:33.422Z,5.78
2024-02-23T18:49:18.265Z,9.73
2024-02-23T18:52:03.280Z,3.63
2024-02-23T18:54:49.180Z,5.03
2024-02-23T18:57:33.999Z,8.68
2024-02-23T19:00:19.093Z,2.72
2024-02-23T19:03:04.602Z,4.47
2024-02-23T19:05:49.718Z,5.47
2024-02-23T19:08:34.810Z,5.50
2024-02-23T19:11:20.317Z,4.07
2024-02-23T19:14:05.677Z,6.03
2024-02-23T19:16:50.660Z,2.88
2024-02-23T19:19:35.689Z,3.78
2024-02-23T19:22:23.712Z,3.08
2024-02-23T19:25:11.820Z,6.00
2024-02-23T19:27:56.928Z,4.63
2024-02-23T19:30:43.904Z,3.50
2024-02-23T19:33:29.404Z,2.88
2024-02-23T19:36:16.010Z,4.57
2024-02-23T19:39:01.541Z,9.77
2024-02-23T19:41:47.017Z,7.90
2024-02-23T19:44:32.294Z,5.57
2024-02-23T19:47:17.292Z,5.78
2024-02-23T19:50:02.684Z,7.32
2024-02-23T19:52:48.060Z,8.27
2024-02-23T19:55:33.253Z,4.25
2024-02-23T19:58:18.260Z,4.20
2024-02-23T20:01:03.602Z,4.57
2024-02-23T20:03:48.480Z,6.45
2024-02-23T20:06:33.467Z,9.32
2024-02-23T20:09:18.321Z,10.90
2024-02-23T20:12:03.514Z,11.40
2024-02-23T20:14:48.958Z,20.20
2024-02-23T20:17:36.636Z,13.85
2024-02-23T20:20:23.129Z,10.65
2024-02-23T20:23:08.184Z,10.93
2024-02-23T20:25:53.141Z,14.77
2024-02-23T20:28:38.070Z,11.73
2024-02-23T20:31:23.019Z,13.98
2024-02-23T20:34:08.493Z,16.35
2024-02-23T20:36:54.473Z,16.25
2024-02-23T20:39:39.688Z,12.15
2024-02-23T20:42:24.653Z,11.07
2024-02-23T20:45:10.156Z,9.18
2024-02-23T20:47:55.300Z,10.80
2024-02-23T20:50:40.602Z,6.97
2024-02-23T20:53:25.571Z,9.43
2024-02-23T20:56:10.837Z,6.00
2024-02-23T20:58:55.949Z,6.55
2024-02-23T21:01:40.949Z,7.38
2024-02-23T21:04:25.924Z,9.50
2024-02-23T21:07:10.815Z,8.20
2024-02-23T21:09:55.902Z,11.10
2024-02-23T21:12:40.880Z,8.63
2024-02-23T21:15:25.769Z,6.65
2024-02-23T21:18:16.183Z,10.57
2024-02-23T21:21:01.509Z,8.82
2024-02-23T21:23:46.579Z,14.15
2024-02-23T21:26:32.044Z,8.23
2024-02-23T21:29:16.953Z,9.82
2024-02-23T21:32:01.804Z,10.10
2024-02-23T21:34:46.843Z,7.82
2024-02-23T21:37:32.743Z,8.02
2024-02-23T21:40:18.241Z,6.70
2024-02-23T21:43:03.632Z,8.38
2024-02-23T21:45:48.848Z,5.93
2024-02-23T21:48:34.265Z,5.00
2024-02-23T21:51:19.265Z,7.03
2024-02-23T21:54:05.468Z,6.88
2024-02-23T21:56:50.495Z,6.97
2024-02-23T21:59:35.379Z,6.32
2024-02-23T22:02:20.318Z,7.53
2024-02-23T22:05:05.344Z,9.88
2024-02-23T22:07:50.515Z,9.25
2024-02-23T22:10:36.228Z,10.43
2024-02-23T22:13:21.323Z,8.77
2024-02-23T22:16:06.139Z,7.78
2024-02-23T22:18:51.120Z,6.97
2024-02-23T22:21:35.936Z,9.63
2024-02-23T22:24:20.924Z,7.20
2024-02-23T22:27:06.775Z,10.98
2024-02-23T22:29:52.254Z,7.07
2024-02-23T22:32:37.998Z,5.78
2024-02-23T22:35:26.336Z,5.85
2024-02-23T22:38:11.163Z,7.45
2024-02-23T22:40:55.923Z,4.63
2024-02-23T22:43:41.333Z,6.82
2024-02-23T22:46:27.647Z,5.38
2024-02-23T22:49:12.653Z,7.30
2024-02-23T22:51:57.884Z,5.93
2024-02-23T22:54:43.447Z,4.68
2024-02-23T22:57:28.822Z,5.75
2024-02-23T23:00:14.514Z,5.32
2024-02-23T23:02:59.958Z,6.72
2024-02-23T23:05:45.349Z,8.10
2024-02-23T23:08:30.542Z,4.63
2024-02-23T23:11:15.535Z,5.55
2024-02-23T23:14:01.996Z,7.38
2024-02-23T23:16:47.090Z,6.78
2024-02-23T23:19:31.988Z,9.15
2024-02-23T23:22:17.001Z,8.68
2024-02-23T23:25:02.246Z,11.55
2024-02-23T23:27:48.586Z,8.15
2024-02-23T23:30:33.799Z,11.73
2024-02-23T23:33:19.221Z,5.97
2024-02-23T23:36:04.012Z,11.05
2024-02-23T23:38:49.475Z,9.65
2024-02-23T23:41:34.548Z,17.80
2024-02-23T23:44:19.515Z,10.50
2024-02-23T23:47:05.029Z,12.90
2024-02-23T23:49:49.866Z,10.32
2024-02-23T23:52:34.672Z,11.93
2024-02-23T23:55:19.790Z,10.23
2024-02-23T23:58:05.024Z,10.00
